Abbott, MS

4:45 PM CDT on March 27, 2017 (GMT -0500)
WestWood II | | Change Station
Active Advisory: Severe Thunderstorm Watch

Elev 240 ft 33.61 °N, 88.68 °W | Updated 11 seconds ago

Clear
Clear
82.2 °F
Feels Like 84 °F
N
6.8
Wind Variable Wind from SSW
Gusts 526.9 mph

Today
High -- | Low -- °F
--% Chance of Precip.
Yesterday
High -- | Low -- °F
Precip. -- in
Pressure 29.86 in
Visibility 10.0 miles
Clouds Clear
Heat Index 84 °F
Dew Point 66 °F
Humidity 58%
Rainfall 0.07 in
Snow Depth Not available.
6:48 AM 7:12 PM
Waning Crescent, 0% visible
METAR KSTF 272135Z AUTO 19010KT 10SM CLR 26/16 A2986 RMK AO2
Pressure 29.86 in
Visibility 10.0 miles
Clouds Clear
Heat Index 84 °F
Dew Point 66 °F
Humidity 58%
Rainfall 0.07 in
Snow Depth Not available.
6:48 AM 7:12 PM
Waning Crescent, 0% visible
METAR KSTF 272135Z AUTO 19010KT 10SM CLR 26/16 A2986 RMK AO2

Get Your Daily Forecast Email!

Thanks for signing up!

Be on the lookout for a verification email in your inbox.

You'll start receiving severe weather alerts in your inbox..

×

10-Day Weather Forecast

Almanac

Astronomy

Mar. 27, 2017 Rise Set
Actual Time
Civil Twilight
Nautical Twilight
Astronomical Twilight
Moon
Length of Visible Light
Length of Day
Tomorrow will be .
, % of the Moon is Illuminated

Today's Extremes

State Highs State Lows

Community

WunderPhotos

Upload Photos

1,962,540 photos uploaded!

WunderBlog® & News

Nearby

Air Quality

  Air Quality AQ Index Pollutant
Not available.

Snow Depth

Station Depth Elevation

Earthquake Activity

City Distance Mag. Time & Date
Minimum magnitude displayed is 2.5.

Earthquake Activity

City Distance Mag. Time & Date
Minimum magnitude displayed is 2.5.

Coastal Water Temperatures

Place Temperature

Stations

Nearby Weather Stations

Station Location Temp. Windchill Dew Point Humidity Wind Precip. Elev Updated Type
                   

Watches & Warnings

Severe Thunderstorm Watch
Issued: 4:43 PM CDT Mar. 27, 2017 – National Weather Service

Severe Thunderstorm Watch 90 remains in effect until 900 PM CDT

MS
. Mississippi counties included are

Attala Bolivar Carroll
Choctaw Claiborne Clay
Grenada Hinds Holmes
Humphreys Issaquena Kemper
Lauderdale Leake Leflore
Lowndes Madison Montgomery
Neshoba Newton Noxubee
Oktibbeha Rankin Scott
Sharkey Sunflower Warren
Washington Webster Winston
Yazoo